createdAt,value
2022-09-13T00:00:54.042Z,8.92
2022-09-13T00:03:32.997Z,8.89
2022-09-13T00:06:09.236Z,8.86
2022-09-13T00:08:37.012Z,8.82
2022-09-13T00:11:05.274Z,8.78
2022-09-13T00:13:33.607Z,8.75
2022-09-13T00:16:03.817Z,8.74
2022-09-13T00:18:31.563Z,8.73
2022-09-13T00:21:16.221Z,8.73
2022-09-13T00:23:50.293Z,8.74
2022-09-13T00:26:19.952Z,8.73
2022-09-13T00:28:52.529Z,8.73
2022-09-13T00:31:21.641Z,8.71
2022-09-13T00:33:49.479Z,8.69
2022-09-13T00:36:17.584Z,8.70
2022-09-13T00:38:45.962Z,8.72
2022-09-13T00:41:17.528Z,8.74
2022-09-13T00:44:01.874Z,8.74
2022-09-13T00:46:29.388Z,8.69
2022-09-13T00:49:02.732Z,8.64
2022-09-13T00:51:31.610Z,8.58
2022-09-13T00:54:00.196Z,8.49
2022-09-13T00:56:36.561Z,8.45
2022-09-13T00:59:16.145Z,8.42
2022-09-13T01:01:52.091Z,8.37
2022-09-13T01:04:22.572Z,8.28
2022-09-13T01:06:54.688Z,8.20
2022-09-13T01:09:23.935Z,8.14
2022-09-13T01:12:08.228Z,8.08
2022-09-13T01:14:37.075Z,8.08
2022-09-13T01:17:04.860Z,8.10
2022-09-13T01:19:32.518Z,8.07
2022-09-13T01:22:19.297Z,8.05
2022-09-13T01:24:52.867Z,8.05
2022-09-13T01:27:20.403Z,8.03
2022-09-13T01:30:05.852Z,8.01
2022-09-13T01:32:33.477Z,7.99
2022-09-13T01:35:23.831Z,7.98
2022-09-13T01:38:04.993Z,7.98
2022-09-13T01:40:54.676Z,7.97
2022-09-13T01:43:40.286Z,7.95
2022-09-13T01:46:34.218Z,7.96
2022-09-13T01:49:20.463Z,7.92
2022-09-13T01:52:00.833Z,7.85
2022-09-13T01:54:38.701Z,7.79
2022-09-13T01:57:16.081Z,7.77
2022-09-13T01:59:54.424Z,7.78
2022-09-13T02:02:51.296Z,7.81
2022-09-13T02:05:38.945Z,7.83
2022-09-13T02:08:13.146Z,7.84
2022-09-13T02:11:08.273Z,7.87
2022-09-13T02:13:41.488Z,7.90
2022-09-13T02:16:15.225Z,7.92
2022-09-13T02:18:52.698Z,7.95
2022-09-13T02:21:29.080Z,7.98
2022-09-13T02:24:26.397Z,8.00
2022-09-13T02:26:56.477Z,8.01
2022-09-13T02:29:28.787Z,8.02
2022-09-13T02:32:05.662Z,8.02
2022-09-13T02:34:43.914Z,8.02
2022-09-13T02:37:13.175Z,8.00
2022-09-13T02:39:49.449Z,7.98
2022-09-13T02:42:26.621Z,7.98
2022-09-13T02:44:58.546Z,7.94
2022-09-13T02:47:44.118Z,7.90
2022-09-13T02:50:33.477Z,7.84
2022-09-13T02:53:09.281Z,7.78
2022-09-13T02:56:09.217Z,7.74
2022-09-13T02:59:08.816Z,7.67
2022-09-13T03:01:40.275Z,7.62
2022-09-13T03:04:07.950Z,7.60
2022-09-13T03:06:35.540Z,7.58
2022-09-13T03:09:05.676Z,7.58
2022-09-13T03:12:05.759Z,7.57
2022-09-13T03:14:55.019Z,7.58
2022-09-13T03:17:54.834Z,7.59
2022-09-13T03:20:35.703Z,7.60
2022-09-13T03:23:10.209Z,7.60
2022-09-13T03:25:52.966Z,7.62
2022-09-13T03:28:53.641Z,7.64
2022-09-13T03:31:43.220Z,7.67
2022-09-13T03:34:23.491Z,7.69
2022-09-13T03:37:09.715Z,7.70
2022-09-13T03:39:45.579Z,7.70
2022-09-13T03:42:21.728Z,7.68
2022-09-13T03:44:52.836Z,7.65
2022-09-13T03:47:22.919Z,7.65
2022-09-13T03:49:52.611Z,7.63
2022-09-13T03:52:20.403Z,7.61
2022-09-13T03:54:48.019Z,7.58
2022-09-13T03:57:21.621Z,7.52
2022-09-13T03:59:52.935Z,7.47
2022-09-13T04:02:23.425Z,7.42
2022-09-13T04:04:51.644Z,7.35
2022-09-13T04:07:21.695Z,7.30
2022-09-13T04:09:50.166Z,7.25
2022-09-13T04:12:18.438Z,7.21
2022-09-13T04:14:46.304Z,7.17
2022-09-13T04:17:14.495Z,7.13
2022-09-13T04:19:44.696Z,7.12
2022-09-13T04:22:13.605Z,7.10
2022-09-13T04:24:43.190Z,7.09
2022-09-13T04:27:12.193Z,7.10
2022-09-13T04:29:39.803Z,7.11
2022-09-13T04:32:07.507Z,7.13
2022-09-13T04:34:35.752Z,7.14
2022-09-13T04:37:03.388Z,7.14
2022-09-13T04:39:30.993Z,7.16
2022-09-13T04:41:59.183Z,7.16
2022-09-13T04:44:27.146Z,7.20
2022-09-13T04:46:55.829Z,7.26
2022-09-13T04:49:23.492Z,7.32
2022-09-13T04:51:51.236Z,7.39
2022-09-13T04:54:18.875Z,7.47
2022-09-13T04:56:47.270Z,7.55
2022-09-13T04:59:16.497Z,7.62
2022-09-13T05:01:44.295Z,7.70
2022-09-13T05:04:12.199Z,7.78
2022-09-13T05:06:39.825Z,7.85
2022-09-13T05:09:13.487Z,7.92
2022-09-13T05:11:41.980Z,7.99
2022-09-13T05:14:11.078Z,8.05
2022-09-13T05:16:39.033Z,8.12
2022-09-13T05:19:06.740Z,8.19
2022-09-13T05:21:34.370Z,8.26
2022-09-13T05:24:02.216Z,8.31
2022-09-13T05:26:33.432Z,8.35
2022-09-13T05:29:01.544Z,8.40
2022-09-13T05:31:32.065Z,8.47
2022-09-13T05:34:03.299Z,8.52
2022-09-13T05:36:30.956Z,8.59
2022-09-13T05:39:25.882Z,8.67
2022-09-13T05:41:47.197Z,8.78
2022-09-13T05:44:14.827Z,8.86
2022-09-13T05:46:43.346Z,8.96
2022-09-13T05:49:13.797Z,9.00
2022-09-13T05:51:41.606Z,9.01
2022-09-13T05:54:14.129Z,9.01
2022-09-13T05:56:43.542Z,9.04
2022-09-13T05:59:13.745Z,9.07
2022-09-13T06:01:41.969Z,9.13
2022-09-13T06:04:09.601Z,9.25
2022-09-13T06:06:37.248Z,9.38
2022-09-13T06:09:06.845Z,9.53
2022-09-13T06:11:34.525Z,9.67
2022-09-13T06:14:02.203Z,9.82
2022-09-13T06:16:30.411Z,9.97
2022-09-13T06:18:59.038Z,10.09
2022-09-13T06:21:29.119Z,10.22
2022-09-13T06:23:57.765Z,10.30
2022-09-13T06:26:28.143Z,10.42
2022-09-13T06:28:57.957Z,10.59
2022-09-13T06:31:27.988Z,10.72
2022-09-13T06:33:58.444Z,10.83
2022-09-13T06:36:26.576Z,10.92
2022-09-13T06:38:54.386Z,11.00
2022-09-13T06:41:24.984Z,11.05
2022-09-13T06:43:54.813Z,11.08
2022-09-13T06:46:25.192Z,11.11
2022-09-13T06:48:54.307Z,11.13
2022-09-13T06:51:24.199Z,11.18
2022-09-13T06:53:53.386Z,11.20
2022-09-13T06:56:29.185Z,11.20
2022-09-13T06:58:59.326Z,11.25
2022-09-13T07:01:29.526Z,11.33
2022-09-13T07:04:03.299Z,11.40
2022-09-13T07:06:34.336Z,11.47
2022-09-13T07:09:04.307Z,11.54
2022-09-13T07:11:38.673Z,11.63
2022-09-13T07:14:06.890Z,11.72
2022-09-13T07:16:37.782Z,11.82
2022-09-13T07:19:08.311Z,11.93
2022-09-13T07:21:36.030Z,12.10
2022-09-13T07:24:04.677Z,12.25
2022-09-13T07:26:32.484Z,12.41
2022-09-13T07:29:02.247Z,12.59
2022-09-13T07:31:38.925Z,12.76
2022-09-13T07:34:08.821Z,12.95
2022-09-13T07:36:36.442Z,13.11
2022-09-13T07:39:05.387Z,13.20
2022-09-13T07:41:34.665Z,13.29
2022-09-13T07:44:05.118Z,13.34
2022-09-13T07:46:36.301Z,13.35
2022-09-13T07:49:03.952Z,13.46
2022-09-13T07:51:34.018Z,13.57
2022-09-13T07:54:04.808Z,13.65
2022-09-13T07:56:34.802Z,13.73
2022-09-13T07:59:06.755Z,13.85
2022-09-13T08:01:40.274Z,13.96
2022-09-13T08:04:10.469Z,14.03
2022-09-13T08:06:40.265Z,14.12
2022-09-13T08:09:09.692Z,14.20
2022-09-13T08:11:39.105Z,14.24
2022-09-13T08:14:09.433Z,14.30
2022-09-13T08:16:37.287Z,14.41
2022-09-13T08:19:06.425Z,14.47
2022-09-13T08:21:40.292Z,14.51
2022-09-13T08:24:13.365Z,14.54
2022-09-13T08:26:41.562Z,14.55
2022-09-13T08:29:10.738Z,14.63
2022-09-13T08:31:38.405Z,14.68
2022-09-13T08:34:10.272Z,14.72
2022-09-13T08:36:37.965Z,14.81
2022-09-13T08:39:06.801Z,14.90
2022-09-13T08:41:40.260Z,14.99
2022-09-13T08:44:07.755Z,15.08
2022-09-13T08:46:43.122Z,15.13
2022-09-13T08:49:21.795Z,15.12
2022-09-13T08:52:21.656Z,15.13
2022-09-13T08:54:53.791Z,15.09
2022-09-13T08:57:36.579Z,15.11
2022-09-13T09:00:23.155Z,15.14
2022-09-13T09:03:12.685Z,15.15
2022-09-13T09:05:49.996Z,15.13
2022-09-13T09:08:31.268Z,15.16
2022-09-13T09:11:24.335Z,15.22
2022-09-13T09:14:16.657Z,15.33
2022-09-13T09:16:59.589Z,15.47
2022-09-13T09:19:34.334Z,15.60
2022-09-13T09:22:06.181Z,15.71
2022-09-13T09:24:38.794Z,15.85
2022-09-13T09:27:24.054Z,15.97
2022-09-13T09:29:54.779Z,16.09
2022-09-13T09:32:54.074Z,16.18
2022-09-13T09:35:28.085Z,16.27
2022-09-13T09:38:23.736Z,16.33
2022-09-13T09:40:52.096Z,16.37
2022-09-13T09:43:38.991Z,16.39
2022-09-13T09:46:10.893Z,16.43
2022-09-13T09:48:47.832Z,16.55
2022-09-13T09:51:20.124Z,16.68
2022-09-13T09:53:52.986Z,16.76
2022-09-13T09:56:31.834Z,16.96
2022-09-13T09:59:00.401Z,17.06
2022-09-13T10:01:32.577Z,17.16
2022-09-13T10:04:22.148Z,17.26
2022-09-13T10:06:51.436Z,17.27
2022-09-13T10:09:21.825Z,17.30
2022-09-13T10:11:56.601Z,17.36
2022-09-13T10:14:45.943Z,17.40
2022-09-13T10:17:29.928Z,17.40
2022-09-13T10:20:17.132Z,17.43
2022-09-13T10:22:44.930Z,17.46
2022-09-13T10:25:29.606Z,17.45
2022-09-13T10:28:00.304Z,17.40
2022-09-13T10:30:54.529Z,17.34
2022-09-13T10:33:40.414Z,17.27
2022-09-13T10:36:25.033Z,17.21
2022-09-13T10:39:21.162Z,17.16
2022-09-13T10:41:50.975Z,17.09
2022-09-13T10:44:33.162Z,17.01
2022-09-13T10:47:06.215Z,16.92
2022-09-13T10:49:57.382Z,16.92
2022-09-13T10:52:33.903Z,16.95
2022-09-13T10:55:18.422Z,16.99
2022-09-13T10:57:50.946Z,16.99
2022-09-13T11:00:25.708Z,16.99
2022-09-13T11:03:21.014Z,16.99
2022-09-13T11:06:07.588Z,16.98
2022-09-13T11:08:57.518Z,16.96
2022-09-13T11:11:46.981Z,16.95
2022-09-13T11:14:40.211Z,16.92
2022-09-13T11:17:30.581Z,16.86
2022-09-13T11:20:05.550Z,16.80
2022-09-13T11:22:59.323Z,16.76
2022-09-13T11:25:32.732Z,16.73
2022-09-13T11:28:16.237Z,16.70
2022-09-13T11:31:02.941Z,16.69
2022-09-13T11:34:00.110Z,16.68
2022-09-13T11:36:44.004Z,16.69
2022-09-13T11:39:50.281Z,16.70
2022-09-13T11:42:37.014Z,16.66
2022-09-13T11:45:22.953Z,16.63
2022-09-13T11:48:24.071Z,16.64
2022-09-13T11:51:20.096Z,16.68
2022-09-13T11:54:20.392Z,16.68
2022-09-13T11:56:58.088Z,16.71
2022-09-13T11:59:57.615Z,16.73
2022-09-13T12:02:34.493Z,16.77
2022-09-13T12:05:23.899Z,16.82
2022-09-13T12:08:14.992Z,16.91
2022-09-13T12:11:08.006Z,17.03
2022-09-13T12:14:06.954Z,17.10
2022-09-13T12:16:59.440Z,17.20
2022-09-13T12:23:25.363Z,17.31
2022-09-13T12:26:00.313Z,17.31
2022-09-13T12:28:36.014Z,17.31
2022-09-13T12:31:20.757Z,17.32
2022-09-13T12:33:49.462Z,17.35
2022-09-13T12:36:38.927Z,17.41
2022-09-13T12:39:37.514Z,17.47
2022-09-13T12:42:33.903Z,17.53
2022-09-13T12:45:20.725Z,17.56
2022-09-13T12:48:01.747Z,17.59
2022-09-13T12:50:45.489Z,17.57
2022-09-13T12:53:32.707Z,17.56
2022-09-13T12:56:09.368Z,17.53
2022-09-13T13:03:19.504Z,17.36
2022-09-13T13:06:08.758Z,17.29
2022-09-13T13:08:36.992Z,17.28
2022-09-13T13:11:14.065Z,17.29
2022-09-13T13:13:53.531Z,17.29
2022-09-13T13:16:32.917Z,17.32
2022-09-13T13:19:25.259Z,17.38
2022-09-13T13:21:54.304Z,17.41
2022-09-13T13:24:21.898Z,17.42
2022-09-13T13:26:49.531Z,17.43
2022-09-13T13:29:23.330Z,17.44
2022-09-13T13:32:04.036Z,17.43
2022-09-13T13:34:42.423Z,17.40
2022-09-13T13:37:10.076Z,17.37
2022-09-13T13:39:43.088Z,17.31
2022-09-13T13:42:28.127Z,17.25
2022-09-13T13:45:06.539Z,17.19
2022-09-13T13:47:34.410Z,17.11
2022-09-13T13:50:10.817Z,17.06
2022-09-13T13:52:50.510Z,16.97
2022-09-13T13:55:50.477Z,16.89
2022-09-13T13:58:30.789Z,16.79
2022-09-13T14:01:01.475Z,16.70
2022-09-13T14:03:41.896Z,16.63
2022-09-13T14:06:21.177Z,16.56
2022-09-13T14:09:15.607Z,16.49
2022-09-13T14:12:15.210Z,16.44
2022-09-13T14:15:05.218Z,16.42
2022-09-13T14:17:45.236Z,16.44
2022-09-13T14:20:17.535Z,16.47
2022-09-13T14:22:45.489Z,16.46
2022-09-13T14:25:19.130Z,16.44
2022-09-13T14:27:48.613Z,16.41
2022-09-13T14:30:34.892Z,16.37
2022-09-13T14:33:05.231Z,16.34
2022-09-13T14:35:35.386Z,16.33
2022-09-13T14:38:20.791Z,16.32
2022-09-13T14:40:50.480Z,16.32
2022-09-13T14:43:23.827Z,16.33
2022-09-13T14:46:14.337Z,16.33
2022-09-13T14:49:02.813Z,16.33
2022-09-13T14:51:54.186Z,16.32
2022-09-13T14:54:39.202Z,16.30
2022-09-13T14:57:14.207Z,16.27
2022-09-13T14:59:47.984Z,16.25
2022-09-13T15:02:23.476Z,16.21
2022-09-13T15:04:54.706Z,16.18
2022-09-13T15:07:31.769Z,16.13
2022-09-13T15:10:28.227Z,16.10
2022-09-13T15:13:05.393Z,16.06
2022-09-13T15:15:38.825Z,16.02
2022-09-13T15:18:26.532Z,15.99
2022-09-13T15:21:10.144Z,15.95
2022-09-13T15:23:41.507Z,15.93
2022-09-13T15:26:20.129Z,15.91
2022-09-13T15:28:53.533Z,15.88
2022-09-13T15:31:28.677Z,15.84
2022-09-13T15:34:18.638Z,15.81
2022-09-13T15:37:01.959Z,15.78
2022-09-13T15:39:29.791Z,15.77
2022-09-13T15:42:02.454Z,15.75
2022-09-13T15:44:30.347Z,15.74
2022-09-13T15:47:04.929Z,15.75
2022-09-13T15:49:32.872Z,15.74
2022-09-13T15:52:05.589Z,15.73
2022-09-13T15:54:38.902Z,15.75
2022-09-13T15:57:09.495Z,15.76
2022-09-13T15:59:37.438Z,15.77
2022-09-13T16:02:23.407Z,15.77
2022-09-13T16:04:51.217Z,15.79
2022-09-13T16:07:19.167Z,15.81
2022-09-13T16:09:48.164Z,15.80
2022-09-13T16:12:16.308Z,15.81
2022-09-13T16:14:43.945Z,15.80
2022-09-13T16:17:19.139Z,15.79
2022-09-13T16:19:47.344Z,15.78
2022-09-13T16:22:15.463Z,15.77
2022-09-13T16:24:43.253Z,15.76
2022-09-13T16:27:14.205Z,15.74
2022-09-13T16:29:42.670Z,15.72
2022-09-13T16:32:10.646Z,15.70
2022-09-13T16:34:38.740Z,15.67
2022-09-13T16:37:06.511Z,15.65
2022-09-13T16:39:34.126Z,15.62
2022-09-13T16:42:01.757Z,15.61
2022-09-13T16:44:29.406Z,15.59
2022-09-13T16:46:57.074Z,15.57
2022-09-13T16:49:25.599Z,15.55
2022-09-13T16:51:53.300Z,15.54
2022-09-13T16:54:20.963Z,15.53
2022-09-13T16:56:48.646Z,15.51
2022-09-13T16:59:16.235Z,15.48
2022-09-13T17:01:43.954Z,15.46
2022-09-13T17:04:11.855Z,15.45
2022-09-13T17:06:39.452Z,15.43
2022-09-13T17:09:07.917Z,15.42
2022-09-13T17:11:38.455Z,15.39
2022-09-13T17:14:09.646Z,15.39
2022-09-13T17:16:40.600Z,15.37
2022-09-13T17:19:13.510Z,15.35
2022-09-13T17:21:41.892Z,15.33
2022-09-13T17:24:13.363Z,15.32
2022-09-13T17:26:42.641Z,15.30
2022-09-13T17:29:14.656Z,15.30
2022-09-13T17:31:43.586Z,15.29
2022-09-13T17:34:13.010Z,15.30
2022-09-13T17:36:42.714Z,15.30
2022-09-13T17:39:11.281Z,15.29
2022-09-13T17:41:39.065Z,15.28
2022-09-13T17:44:07.232Z,15.29
2022-09-13T17:46:35.303Z,15.26
2022-09-13T17:49:03.039Z,15.25
2022-09-13T17:51:32.988Z,15.23
2022-09-13T17:54:03.374Z,15.21
2022-09-13T17:56:31.278Z,15.21
2022-09-13T17:59:25.773Z,15.22
2022-09-13T18:01:54.342Z,15.22
2022-09-13T18:04:23.278Z,15.21
2022-09-13T18:06:52.493Z,15.21
2022-09-13T18:09:21.021Z,15.20
2022-09-13T18:11:49.823Z,15.19
2022-09-13T18:14:19.099Z,15.17
2022-09-13T18:16:51.787Z,15.16
2022-09-13T18:19:33.912Z,15.14
2022-09-13T18:22:08.848Z,15.12
2022-09-13T18:24:36.826Z,15.10
2022-09-13T18:27:04.528Z,15.09
2022-09-13T18:29:32.942Z,15.08
2022-09-13T18:32:00.763Z,15.08
2022-09-13T18:34:28.390Z,15.08
2022-09-13T18:36:56.334Z,15.07
2022-09-13T18:39:23.982Z,15.06
2022-09-13T18:41:51.577Z,15.04
2022-09-13T18:44:19.448Z,15.03
2022-09-13T18:46:47.401Z,15.02
2022-09-13T18:49:15.207Z,15.00
2022-09-13T18:51:44.693Z,14.99
2022-09-13T18:54:17.547Z,14.97
2022-09-13T18:56:47.248Z,14.95
2022-09-13T18:59:14.968Z,14.93
2022-09-13T19:01:44.159Z,14.92
2022-09-13T19:04:17.593Z,14.89
2022-09-13T19:06:51.732Z,14.88
2022-09-13T19:09:20.780Z,14.86
2022-09-13T19:11:51.773Z,14.86
2022-09-13T19:14:25.869Z,14.87
2022-09-13T19:16:56.668Z,14.87
2022-09-13T19:19:24.636Z,14.86
2022-09-13T19:21:53.110Z,14.84
2022-09-13T19:24:21.493Z,14.82
2022-09-13T19:26:51.858Z,14.80
2022-09-13T19:29:22.774Z,14.77
2022-09-13T19:31:52.990Z,14.75
2022-09-13T19:34:22.436Z,14.73
2022-09-13T19:36:57.200Z,14.71
2022-09-13T19:39:29.167Z,14.71
2022-09-13T19:42:01.116Z,14.71
2022-09-13T19:44:29.347Z,14.70
2022-09-13T19:47:36.168Z,14.71
2022-09-13T19:49:45.528Z,14.72
2022-09-13T19:52:13.334Z,14.73
2022-09-13T19:54:41.118Z,14.75
2022-09-13T19:57:09.515Z,14.76
2022-09-13T19:59:37.360Z,14.77
2022-09-13T20:02:05.395Z,14.77
2022-09-13T20:04:33.436Z,14.76
2022-09-13T20:07:01.399Z,14.76
2022-09-13T20:09:30.994Z,14.74
2022-09-13T20:12:00.671Z,14.74
2022-09-13T20:14:28.872Z,14.72
2022-09-13T20:16:57.261Z,14.70
2022-09-13T20:19:44.815Z,14.67
2022-09-13T20:22:13.758Z,14.62
2022-09-13T20:24:41.657Z,14.58
2022-09-13T20:27:10.113Z,14.54
2022-09-13T20:29:38.100Z,14.50
2022-09-13T20:32:05.892Z,14.45
2022-09-13T20:34:35.171Z,14.42
2022-09-13T20:37:03.155Z,14.38
2022-09-13T20:39:31.200Z,14.34
2022-09-13T20:41:59.107Z,14.32
2022-09-13T20:44:27.547Z,14.28
2022-09-13T20:46:55.832Z,14.25
2022-09-13T20:49:23.705Z,14.23
2022-09-13T20:51:52.163Z,14.20
2022-09-13T20:54:19.979Z,14.18
2022-09-13T20:56:47.838Z,14.14
2022-09-13T20:59:15.867Z,14.11
2022-09-13T21:01:43.990Z,14.07
2022-09-13T21:04:11.930Z,14.00
2022-09-13T21:07:27.555Z,13.92
2022-09-13T21:09:55.343Z,13.81
2022-09-13T21:12:23.931Z,13.75
2022-09-13T21:14:51.675Z,13.70
2022-09-13T21:17:20.193Z,13.65
2022-09-13T21:19:47.990Z,13.62
2022-09-13T21:22:15.793Z,13.58
2022-09-13T21:24:43.971Z,13.53
2022-09-13T21:27:12.139Z,13.50
2022-09-13T21:29:40.067Z,13.46
2022-09-13T21:32:07.808Z,13.43
2022-09-13T21:34:35.952Z,13.40
2022-09-13T21:37:03.744Z,13.36
2022-09-13T21:39:31.458Z,13.32
2022-09-13T21:41:59.255Z,13.28
2022-09-13T21:44:28.163Z,13.24
2022-09-13T21:46:55.945Z,13.18
2022-09-13T21:49:23.729Z,13.11
2022-09-13T21:51:54.082Z,13.08
2022-09-13T21:54:23.076Z,13.03
2022-09-13T21:56:54.077Z,12.98
2022-09-13T21:59:23.660Z,12.95
2022-09-13T22:01:54.126Z,12.93
2022-09-13T22:04:25.325Z,12.90
2022-09-13T22:06:54.721Z,12.87
2022-09-13T22:09:26.687Z,12.83
2022-09-13T22:11:55.726Z,12.79
2022-09-13T22:14:23.750Z,12.76
2022-09-13T22:16:53.057Z,12.74
2022-09-13T22:19:24.575Z,12.74
2022-09-13T22:21:59.277Z,12.76
2022-09-13T22:24:32.185Z,12.77
2022-09-13T22:27:00.299Z,12.78
2022-09-13T22:29:29.129Z,12.79
2022-09-13T22:31:56.889Z,12.81
2022-09-13T22:34:25.803Z,12.82
2022-09-13T22:36:55.249Z,12.82
2022-09-13T22:39:23.915Z,12.84
2022-09-13T22:41:52.501Z,12.83
2022-09-13T22:44:20.967Z,12.83
2022-09-13T22:46:48.829Z,12.84
2022-09-13T22:49:19.159Z,12.86
2022-09-13T22:51:49.181Z,12.85
2022-09-13T22:54:18.772Z,12.84
2022-09-13T22:56:46.842Z,12.83
2022-09-13T22:59:17.978Z,12.81
2022-09-13T23:01:46.602Z,12.78
2022-09-13T23:04:15.021Z,12.78
2022-09-13T23:06:46.612Z,12.78
2022-09-13T23:09:18.060Z,12.79
2022-09-13T23:11:46.891Z,12.80
2022-09-13T23:14:16.792Z,12.83
2022-09-13T23:16:49.004Z,12.86
2022-09-13T23:19:19.043Z,12.88
2022-09-13T23:21:46.824Z,12.92
2022-09-13T23:24:17.052Z,12.92
2022-09-13T23:26:45.778Z,12.93
2022-09-13T23:29:16.979Z,12.94
2022-09-13T23:31:46.861Z,12.94
2022-09-13T23:34:16.382Z,12.94
2022-09-13T23:36:45.587Z,12.94
2022-09-13T23:39:16.999Z,12.94
2022-09-13T23:41:47.080Z,12.92
2022-09-13T23:44:15.693Z,12.91
2022-09-13T23:46:43.917Z,12.89
2022-09-13T23:49:12.216Z,12.88
2022-09-13T23:51:40.379Z,12.86
2022-09-13T23:54:09.070Z,12.86
2022-09-13T23:56:36.818Z,12.86
2022-09-13T23:59:05.695Z,12.86
